Time;durP1;ratioP1;P1;durP2;ratioP2;P2;SDS_P1;SDS_P2;PMS_P1;PMS_P2;Temp;Humidity;BMP_temperature;BMP_pressure;BME280_temperature;BME280_humidity;BME280_pressure;Samples;Min_cycle;Max_cycle;Signal;HPM_P1;HPM_P2
2021/12/04 00:00:13;;;;;;;53.65;26.08;;;;;;;-142.75;100.00;76985.66;5069782;28;20036;-66
2021/12/04 00:02:39;;;;;;;47.70;25.43;;;;;;;-142.75;100.00;76983.69;5052179;28;20037;-66
2021/12/04 00:05:05;;;;;;;50.10;25.67;;;;;;;-142.75;100.00;76979.75;5052549;28;20055;-66
2021/12/04 00:07:33;;;;;;;49.90;25.83;;;;;;;-142.75;100.00;76979.75;5070263;28;20032;-66
2021/12/04 00:10:01;;;;;;;57.10;27.20;;;;;;;-142.75;100.00;76977.78;5069378;28;20012;-66
2021/12/04 00:12:27;;;;;;;58.77;28.13;;;;;;;-142.75;100.00;76967.94;5070245;28;20024;-67
2021/12/04 00:14:52;;;;;;;54.33;26.33;;;;;;;-142.75;100.00;76956.13;5068925;28;20024;-68
2021/12/04 00:17:18;;;;;;;52.22;26.80;;;;;;;-142.75;100.00;76956.13;5070600;28;20016;-66
2021/12/04 00:19:43;;;;;;;50.65;26.80;;;;;;;-142.75;100.00;76954.16;5069416;28;20438;-67
2021/12/04 00:22:09;;;;;;;56.97;26.88;;;;;;;-142.75;100.00;76954.16;5070048;28;20054;-67
2021/12/04 00:24:35;;;;;;;50.05;25.63;;;;;;;-142.75;100.00;76952.19;5069951;28;20099;-66
2021/12/04 00:27:01;;;;;;;55.63;27.25;;;;;;;-142.75;100.00;76952.19;5069957;28;20099;-66
2021/12/04 00:29:27;;;;;;;;;;;;;;;-142.75;100.00;76954.16;5070381;28;20020;-67
2021/12/04 00:31:58;;;;;;;54.10;26.00;;;;;;;-142.75;100.00;76952.19;5051217;28;19919;-66
2021/12/04 00:34:26;;;;;;;64.03;27.47;;;;;;;-142.75;100.00;76938.41;5051995;28;20032;-67
2021/12/04 00:37:07;;;;;;;59.57;28.43;;;;;;;-142.75;100.00;76940.38;5069847;28;20020;-67
2021/12/04 00:50:29;;;;;;;60.67;27.20;;;;;;;-142.75;100.00;76928.56;5068885;28;20051;-66
2021/12/04 00:52:55;;;;;;;64.18;28.80;;;;;;;-142.75;100.00;76920.69;5069341;28;20486;-66
2021/12/04 00:55:21;;;;;;;72.33;29.73;;;;;;;-142.75;100.00;76922.66;5069944;28;20028;-66
2021/12/04 00:57:46;;;;;;;58.22;28.40;;;;;;;-142.75;100.00;76926.59;5069542;28;20047;-66
2021/12/04 01:00:12;;;;;;;58.17;26.87;;;;;;;-142.75;100.00;76930.53;5068748;28;20028;-66
2021/12/04 01:02:37;;;;;;;58.60;27.02;;;;;;;-142.75;100.00;76916.75;5069349;28;20274;-66
2021/12/04 01:05:03;;;;;;;60.10;28.17;;;;;;;-142.75;100.00;76916.75;5069512;28;20029;-66
2021/12/04 01:07:28;;;;;;;67.43;26.60;;;;;;;-142.75;100.00;76906.91;5069442;28;20029;-67
2021/12/04 01:09:53;;;;;;;64.50;26.65;;;;;;;-142.75;100.00;76912.81;5068734;28;20020;-66
2021/12/04 01:12:19;;;;;;;64.43;28.45;;;;;;;-142.75;100.00;76901.00;5069575;28;20024;-67
2021/12/04 01:14:44;;;;;;;63.67;27.38;;;;;;;-142.75;100.00;76912.81;5066794;28;20410;-67
2021/12/04 01:17:10;;;;;;;60.58;25.95;;;;;;;-142.75;100.00;76902.97;5069674;28;20031;-67
2021/12/04 01:19:36;;;;;;;64.88;26.92;;;;;;;-142.75;100.00;76899.03;5069426;28;20017;-66
2021/12/04 01:22:02;;;;;;;62.00;25.40;;;;;;;-142.75;100.00;76897.06;5057831;28;20501;-67
2021/12/04 01:24:28;;;;;;;;;;;;;;;-142.75;100.00;76902.97;5049571;28;20049;-66
2021/12/04 01:26:54;;;;;;;60.07;25.40;;;;;;;-142.75;100.00;76904.94;5031328;28;19959;-67
2021/12/04 01:29:19;;;;;;;64.73;26.53;;;;;;;-142.75;100.00;76893.13;5049265;28;20040;-67
2021/12/04 01:31:45;;;;;;;59.42;27.52;;;;;;;-142.75;100.00;76897.06;5048388;28;20448;-66
2021/12/04 01:34:11;;;;;;;63.78;25.83;;;;;;;-142.75;100.00;76910.84;5049049;28;20455;-66
2021/12/04 01:36:37;;;;;;;;;;;;;;;-142.75;100.00;76889.19;5049593;28;20102;-66
2021/12/04 01:39:04;;;;;;;66.03;26.57;;;;;;;-142.75;100.00;76883.28;5046986;28;20008;-67
2021/12/04 01:41:30;;;;;;;68.07;26.80;;;;;;;-142.75;100.00;76891.16;5030432;28;20059;-67
2021/12/04 01:43:58;;;;;;;62.60;26.30;;;;;;;-142.75;100.00;76877.38;5048967;28;20025;-65
2021/12/04 01:46:24;;;;;;;68.37;26.53;;;;;;;-142.75;100.00;76881.31;5049045;28;20032;-65
2021/12/04 01:48:49;;;;;;;62.88;25.90;;;;;;;-142.75;100.00;76893.13;5049328;28;20021;-67
2021/12/04 01:51:14;;;;;;;69.50;26.57;;;;;;;-142.75;100.00;76891.16;5048238;28;20386;-66
2021/12/04 01:53:40;;;;;;;64.40;25.38;;;;;;;-142.75;100.00;76901.00;5048593;28;21080;-66
2021/12/04 01:56:05;;;;;;;64.05;24.85;;;;;;;-142.75;100.00;76893.13;5048913;28;20383;-66
2021/12/04 01:58:31;;;;;;;63.05;24.30;;;;;;;-142.75;100.00;76877.38;5048819;28;20024;-66
2021/12/04 02:00:57;;;;;;;63.47;24.33;;;;;;;-142.75;100.00;76881.31;5048080;28;20028;-66
2021/12/04 02:03:22;;;;;;;61.78;26.23;;;;;;;-142.75;100.00;76869.50;5048912;28;20029;-66
2021/12/04 02:05:49;;;;;;;65.35;25.45;;;;;;;-142.75;100.00;76873.44;5049143;28;20360;-66
2021/12/04 02:08:17;;;;;;;67.93;26.33;;;;;;;-142.75;100.00;76865.56;5048670;28;20048;-66
2021/12/04 02:10:44;;;;;;;53.33;22.87;;;;;;;-142.75;100.00;76873.44;5048096;28;20395;-66
2021/12/04 02:13:10;;;;;;;64.00;24.67;;;;;;;-142.75;100.00;76869.50;5048742;28;20029;-66
2021/12/04 02:15:36;;;;;;;59.72;25.50;;;;;;;-142.75;100.00;76859.66;5048735;28;20582;-66
2021/12/04 02:18:02;;;;;;;66.63;25.20;;;;;;;-142.75;100.00;76859.66;5048672;28;20078;-66
2021/12/04 02:20:31;;;;;;;58.17;23.67;;;;;;;-142.75;100.00;76865.56;5047788;28;20017;-66
2021/12/04 02:22:57;;;;;;;65.47;24.90;;;;;;;-142.75;100.00;76853.75;5048500;28;20033;-67
2021/12/04 02:25:22;;;;;;;67.72;24.15;;;;;;;-142.75;100.00;76861.63;5049927;28;20111;-66
2021/12/04 02:27:48;;;;;;;67.68;24.50;;;;;;;-142.75;100.00;76863.59;5052696;28;20025;-66
2021/12/04 02:30:18;;;;;;;62.80;23.75;;;;;;;-142.75;100.00;76865.56;5051617;28;20445;-67
2021/12/04 02:32:44;;;;;;;53.77;22.00;;;;;;;-142.75;100.00;76869.50;5051926;28;20020;-66
2021/12/04 02:35:10;;;;;;;;;;;;;;;-142.75;100.00;76853.75;5052545;28;20067;-66
2021/12/04 02:37:37;;;;;;;65.07;24.17;;;;;;;-142.75;100.00;76873.44;5052070;28;19921;-66
2021/12/04 02:40:08;;;;;;;69.23;23.07;;;;;;;-142.75;100.00;76861.63;5051302;28;20024;-66
2021/12/04 02:42:34;;;;;;;60.87;22.43;;;;;;;-142.75;100.00;76863.59;5052037;28;20506;-66
2021/12/04 02:45:02;;;;;;;64.45;23.02;;;;;;;-142.75;100.00;76853.75;5052080;28;20052;-66
2021/12/04 02:47:28;;;;;;;62.57;24.27;;;;;;;-142.75;100.00;76859.66;5052140;28;20419;-66
2021/12/04 02:49:55;;;;;;;65.30;24.87;;;;;;;-142.75;100.00;76853.75;5051082;28;20045;-66
2021/12/04 02:52:22;;;;;;;64.13;23.93;;;;;;;-142.75;100.00;76863.59;5052191;28;20025;-66
2021/12/04 02:54:48;;;;;;;57.17;23.43;;;;;;;-142.75;100.00;76843.91;5033955;28;20025;-66
2021/12/04 02:57:16;;;;;;;65.90;23.03;;;;;;;-142.75;100.00;76843.91;5051815;28;20025;-66
2021/12/04 02:59:42;;;;;;;59.67;23.10;;;;;;;-142.75;100.00;76838.00;5033097;28;20108;-66
2021/12/04 03:02:16;;;;;;;62.58;22.75;;;;;;;-142.75;100.00;76834.06;5033739;28;20490;-66
2021/12/04 03:04:42;;;;;;;63.30;23.47;;;;;;;-142.75;100.00;76830.13;5051581;28;20024;-67
2021/12/04 03:07:07;;;;;;;50.92;21.10;;;;;;;-142.75;100.00;76810.44;5034105;28;20032;-66
2021/12/04 03:09:32;;;;;;;58.92;23.38;;;;;;;-142.75;100.00;76810.44;5051811;28;20021;-66
2021/12/04 03:12:04;;;;;;;57.50;24.07;;;;;;;-142.75;100.00;76816.34;5050901;28;20029;-66
2021/12/04 03:14:29;;;;;;;54.40;23.63;;;;;;;-142.75;100.00;76814.38;5051468;28;20311;-67
2021/12/04 03:16:56;;;;;;;64.78;23.40;;;;;;;-142.75;100.00;76806.50;5051386;28;20467;-67
2021/12/04 03:19:21;;;;;;;58.47;23.17;;;;;;;-142.75;100.00;76800.63;5051668;28;20028;-67
2021/12/04 03:21:47;;;;;;;57.88;23.42;;;;;;;-142.75;100.00;76790.78;5050629;28;20040;-66
2021/12/04 03:24:14;;;;;;;59.30;22.27;;;;;;;-142.75;100.00;76780.94;5051295;28;20474;-67
2021/12/04 03:26:40;;;;;;;59.23;22.77;;;;;;;-142.75;100.00;76775.03;5051264;28;20091;-66
2021/12/04 03:29:10;;;;;;;69.78;23.52;;;;;;;-142.75;100.00;76775.03;5051198;28;20486;-66
2021/12/04 03:42:14;;;;;;;68.23;23.33;;;;;;;-142.75;100.00;76729.75;5051072;28;20094;-66
2021/12/04 03:44:40;;;;;;;66.22;24.35;;;;;;;-142.75;100.00;76723.84;5050771;28;20029;-66
2021/12/04 03:47:07;;;;;;;69.82;25.73;;;;;;;-142.75;100.00;76727.78;5050989;28;20449;-66
2021/12/04 03:49:32;;;;;;;61.17;23.93;;;;;;;-142.75;100.00;76743.53;5050698;28;20013;-66
2021/12/04 03:51:57;;;;;;;64.70;23.88;;;;;;;-142.75;100.00;76743.53;5050132;28;20016;-66
2021/12/04 03:54:23;;;;;;;63.58;23.52;;;;;;;-142.75;100.00;76741.56;5050445;28;20028;-66
2021/12/04 03:56:50;;;;;;;62.37;24.03;;;;;;;-142.75;100.00;76735.66;5051097;28;20029;-66
2021/12/04 03:59:15;;;;;;;63.60;23.47;;;;;;;-142.75;100.00;76727.78;5050527;28;20367;-66
2021/12/04 04:01:41;;;;;;;61.60;24.33;;;;;;;-142.75;100.00;76735.66;5049870;28;20107;-66
2021/12/04 04:04:06;;;;;;;67.47;24.25;;;;;;;-142.75;100.00;76733.69;5050430;28;20045;-66
2021/12/04 04:06:31;;;;;;;67.90;25.27;;;;;;;-142.75;100.00;76727.78;5050562;28;20028;-66
2021/12/04 04:08:57;;;;;;;64.50;25.30;;;;;;;-142.75;100.00;76715.97;5050383;28;20649;-66
2021/12/04 04:11:22;;;;;;;77.78;24.65;;;;;;;-142.75;100.00;76719.91;5049793;28;20028;-67
2021/12/04 04:13:47;;;;;;;70.60;24.27;;;;;;;-142.75;100.00;76725.81;5050717;28;20115;-66
2021/12/04 04:16:13;;;;;;;63.13;24.75;;;;;;;-142.75;100.00;76723.84;5050358;28;20086;-66
2021/12/04 04:18:39;;;;;;;65.22;23.38;;;;;;;-142.75;100.00;76723.84;5050317;28;20100;-66
2021/12/04 04:21:04;;;;;;;69.15;25.33;;;;;;;-142.75;100.00;76719.91;5031545;28;20086;-66
2021/12/04 04:23:30;;;;;;;61.40;25.30;;;;;;;-142.75;100.00;76721.88;5049999;28;20029;-66
2021/12/04 04:25:55;;;;;;;73.60;26.52;;;;;;;-142.75;100.00;76714.00;5050159;28;20067;-66
2021/12/04 04:28:21;;;;;;;71.22;23.90;;;;;;;-142.75;100.00;76710.06;5050436;28;20021;-67
2021/12/04 04:30:47;;;;;;;70.82;25.55;;;;;;;-142.75;100.00;76712.03;5049655;28;20028;-67
2021/12/04 04:33:13;;;;;;;101.18;24.67;;;;;;;-142.75;100.00;76719.91;5069712;28;20037;-67
2021/12/04 04:35:39;;;;;;;72.13;24.17;;;;;;;-142.75;100.00;76708.09;5069903;28;20025;-66
2021/12/04 05:12:59;;;;;;;88.30;26.57;;;;;;;-142.75;100.00;76719.91;5069665;28;20033;-66
2021/12/04 05:21:05;;;;;;;132.90;27.08;;;;;;;-142.75;100.00;76731.72;5006550;28;20021;-66
2021/12/04 05:23:51;;;;;;;104.53;26.70;;;;;;;-142.75;100.00;76725.81;5035595;28;20041;-67
2021/12/04 05:26:25;;;;;;;89.10;26.27;;;;;;;-142.75;100.00;76715.97;5048659;28;20028;-66
2021/12/04 05:28:53;;;;;;;113.53;26.97;;;;;;;-142.75;100.00;76715.97;5061876;28;20035;-66
2021/12/04 05:31:20;;;;;;;103.37;25.03;;;;;;;-142.75;100.00;76725.81;5062827;28;20024;-66
2021/12/04 05:33:46;;;;;;;97.27;27.10;;;;;;;-142.75;100.00;76721.88;5069089;28;20027;-67
2021/12/04 05:36:11;;;;;;;88.65;25.35;;;;;;;-142.75;100.00;76719.91;5051156;28;20028;-67
2021/12/04 05:38:37;;;;;;;114.37;26.47;;;;;;;-142.75;100.00;76717.94;5069091;28;20024;-67
2021/12/04 05:41:03;;;;;;;88.22;26.80;;;;;;;-142.75;100.00;76712.03;5068198;28;20731;-66
2021/12/04 05:43:29;;;;;;;;;;;;;;;-142.75;100.00;76723.84;5069398;28;20101;-66
2021/12/04 05:46:09;;;;;;;102.07;28.53;;;;;;;-142.75;100.00;76753.38;5068933;28;20385;-66
2021/12/04 05:51:33;;;;;;;90.17;26.03;;;;;;;-142.75;100.00;76743.53;5068134;28;20021;-67
2021/12/04 05:54:04;;;;;;;92.53;26.93;;;;;;;-142.75;100.00;76731.72;5083603;22;20024;-66
2021/12/04 05:56:32;;;;;;;122.83;28.30;;;;;;;-142.75;100.00;76729.75;5048773;28;20025;-68
2021/12/04 05:58:59;;;;;;;119.20;27.37;;;;;;;-142.75;100.00;76725.81;5048982;28;20443;-68
2021/12/04 06:01:26;;;;;;;80.23;28.13;;;;;;;-142.75;100.00;76717.94;5050758;28;20490;-67
2021/12/04 06:03:51;;;;;;;82.57;25.73;;;;;;;-142.75;100.00;76710.06;5054423;28;20544;-67
2021/12/04 06:06:17;;;;;;;72.28;23.67;;;;;;;-142.75;100.00;76706.13;5055152;28;20107;-68
2021/12/04 06:08:43;;;;;;;60.78;22.90;;;;;;;-142.75;100.00;76696.28;5072756;28;20032;-68
2021/12/04 06:11:08;;;;;;;61.03;21.02;;;;;;;-142.75;100.00;76694.31;5071969;28;20028;-68
2021/12/04 06:13:33;;;;;;;46.80;18.42;;;;;;;-142.75;100.00;76702.19;5072621;28;20031;-68
2021/12/04 06:15:59;;;;;;;43.47;18.13;;;;;;;-142.75;100.00;76704.16;5072486;28;20029;-68
2021/12/04 06:18:25;;;;;;;44.63;16.05;;;;;;;-142.75;100.00;76704.16;5072564;28;20474;-67
2021/12/04 06:23:35;;;;;;;40.30;15.80;;;;;;;-142.75;100.00;76708.09;5072657;28;20125;-68
2021/12/04 06:26:02;;;;;;;31.65;15.50;;;;;;;-142.75;100.00;76714.00;5072392;28;20060;-67
2021/12/04 06:28:28;;;;;;;42.20;16.00;;;;;;;-142.75;100.00;76719.91;5072288;28;20020;-67
2021/12/04 06:30:54;;;;;;;59.60;16.52;;;;;;;-142.75;100.00;76731.72;5071508;28;20036;-67
2021/12/04 06:33:21;;;;;;;42.33;16.10;;;;;;;-142.75;100.00;76731.72;5072483;28;20024;-68
2021/12/04 06:35:47;;;;;;;38.85;15.07;;;;;;;-142.75;100.00;76731.72;5072059;28;20021;-68
2021/12/04 06:38:15;;;;;;;33.73;14.80;;;;;;;-142.75;100.00;76725.81;5072105;28;20031;-68
2021/12/04 06:40:41;;;;;;;37.67;16.23;;;;;;;-142.75;100.00;76721.88;5053254;28;20090;-68
2021/12/04 06:43:07;;;;;;;37.72;16.23;;;;;;;-142.75;100.00;76727.78;5054132;28;20036;-68
2021/12/04 06:45:36;;;;;;;43.33;16.47;;;;;;;-142.75;100.00;76723.84;5071834;28;20500;-69
2021/12/04 06:48:18;;;;;;;37.13;15.93;;;;;;;-142.75;100.00;76725.81;5071792;28;20035;-69
2021/12/04 06:50:50;;;;;;;59.27;16.67;;;;;;;-142.75;100.00;76719.91;5053212;28;20488;-68
2021/12/04 06:55:47;;;;;;;36.23;14.97;;;;;;;-142.75;100.00;76727.78;5071774;28;20558;-68
2021/12/04 06:58:13;;;;;;;57.17;15.70;;;;;;;-142.75;100.00;76712.03;5071762;28;20024;-69
2021/12/04 07:00:39;;;;;;;35.47;16.90;;;;;;;-142.75;100.00;76712.03;5070758;28;20021;-68
2021/12/04 07:03:04;;;;;;;38.60;17.23;;;;;;;-142.75;100.00;76714.00;5053786;28;20041;-68
2021/12/04 07:05:29;;;;;;;42.00;16.90;;;;;;;-142.75;100.00;76706.13;5071480;28;20058;-66
2021/12/04 07:07:55;;;;;;;39.97;15.63;;;;;;;-142.75;100.00;76710.06;5053781;28;20032;-67
2021/12/04 07:10:21;;;;;;;;;;;;;;;-142.75;100.00;76715.97;5053530;28;20486;-68
2021/12/04 07:12:46;;;;;;;57.07;17.30;;;;;;;-142.75;100.00;76727.78;5070510;28;20011;-68
2021/12/04 07:15:12;;;;;;;52.63;15.43;;;;;;;-142.75;100.00;76753.38;5053572;28;20036;-68
2021/12/04 07:17:38;;;;;;;55.47;16.80;;;;;;;-142.75;100.00;76767.16;5071447;28;20055;-68
2021/12/04 07:20:07;;;;;;;54.72;17.83;;;;;;;-142.75;100.00;76769.13;5070559;28;20048;-68
2021/12/04 07:22:33;;;;;;;75.03;17.83;;;;;;;-142.75;100.00;76773.06;5071357;28;20097;-68
2021/12/04 07:24:58;;;;;;;52.55;16.23;;;;;;;-142.75;100.00;76773.06;5053220;28;20028;-67
2021/12/04 07:27:24;;;;;;;56.88;16.88;;;;;;;-142.75;100.00;76778.97;5071128;28;20397;-67
2021/12/04 07:29:49;;;;;;;61.10;17.45;;;;;;;-142.75;100.00;76773.06;5070704;28;20032;-67
2021/12/04 07:32:15;;;;;;;68.68;17.42;;;;;;;-142.75;100.00;76775.03;5070813;28;20061;-68
2021/12/04 07:34:40;;;;;;;42.70;16.40;;;;;;;-142.75;100.00;76765.19;5071115;28;20375;-68
2021/12/04 07:37:05;;;;;;;43.35;16.25;;;;;;;-142.75;100.00;76767.16;5071026;28;20024;-68
2021/12/04 07:39:31;;;;;;;41.03;16.45;;;;;;;-142.75;100.00;76775.03;5067897;28;20675;-67
2021/12/04 07:41:56;;;;;;;64.32;18.35;;;;;;;-142.75;100.00;76771.09;5062359;28;20032;-67
2021/12/04 07:44:21;;;;;;;59.00;16.55;;;;;;;-142.75;100.00;76759.28;5064531;28;20033;-68
2021/12/04 07:46:47;;;;;;;67.82;17.65;;;;;;;-142.75;100.00;76767.16;5062920;28;20512;-68
2021/12/04 07:49:12;;;;;;;109.03;18.98;;;;;;;-142.75;100.00;76771.09;5043092;28;20081;-68
2021/12/04 07:51:37;;;;;;;66.75;18.92;;;;;;;-142.75;100.00;76771.09;5059536;28;20028;-68
2021/12/04 07:54:03;;;;;;;64.55;18.95;;;;;;;-142.75;100.00;76769.13;5050945;28;20047;-67
2021/12/04 07:56:29;;;;;;;50.88;17.98;;;;;;;-142.75;100.00;76765.19;5070725;28;20456;-68
2021/12/04 07:58:54;;;;;;;57.58;19.88;;;;;;;-142.75;100.00;76757.31;5070473;28;20031;-68
2021/12/04 08:01:20;;;;;;;81.78;20.15;;;;;;;-142.75;100.00;76751.41;5052214;28;20031;-67
2021/12/04 08:03:45;;;;;;;62.70;19.50;;;;;;;-142.75;100.00;76755.34;5052783;28;20032;-67
2021/12/04 08:06:11;;;;;;;62.67;18.85;;;;;;;-142.75;100.00;76751.41;5070310;28;20093;-67
2021/12/04 08:08:36;;;;;;;73.75;20.55;;;;;;;-142.75;100.00;76739.59;5070502;28;20757;-68
2021/12/04 08:11:04;;;;;;;59.22;19.20;;;;;;;-142.75;100.00;76733.69;5048809;28;20119;-67
2021/12/04 08:13:29;;;;;;;67.00;20.27;;;;;;;-142.75;100.00;76735.66;5052349;28;20569;-68
2021/12/04 08:15:55;;;;;;;83.15;21.58;;;;;;;-142.75;100.00;76739.59;5068811;28;20165;-67
2021/12/04 08:18:21;;;;;;;73.57;20.17;;;;;;;-142.75;100.00;76743.53;5069543;28;20027;-67
2021/12/04 08:20:47;;;;;;;62.07;20.33;;;;;;;-142.75;100.00;76747.47;5050458;28;20021;-67
2021/12/04 08:23:12;;;;;;;56.75;19.88;;;;;;;-142.75;100.00;76751.41;5069133;28;20039;-68
2021/12/04 08:25:38;;;;;;;55.35;21.50;;;;;;;-142.75;100.00;76743.53;5067926;28;20024;-68
2021/12/04 08:28:04;;;;;;;63.15;22.80;;;;;;;-142.75;100.00;76739.59;5051175;28;20444;-67
2021/12/04 08:30:32;;;;;;;;;;;;;;;-142.75;100.00;76759.28;5068576;28;20027;-68
2021/12/04 08:32:58;;;;;;;60.17;21.07;;;;;;;-142.75;100.00;76747.47;5069155;28;19916;-68
2021/12/04 08:35:26;;;;;;;64.40;22.33;;;;;;;-142.75;100.00;76733.69;5068905;28;20054;-67
2021/12/04 08:37:53;;;;;;;67.20;22.37;;;;;;;-142.75;100.00;76745.50;5068838;28;20028;-68
2021/12/04 08:40:18;;;;;;;64.00;22.97;;;;;;;-142.75;100.00;76747.47;5068190;28;20016;-67
2021/12/04 08:42:46;;;;;;;67.85;23.80;;;;;;;-142.75;100.00;76733.69;5050746;28;20062;-68
2021/12/04 08:45:13;;;;;;;75.73;23.40;;;;;;;-142.75;100.00;76719.91;5068565;28;20040;-68
2021/12/04 08:47:40;;;;;;;82.80;24.87;;;;;;;-142.75;100.00;76721.88;5065936;28;20397;-68
2021/12/04 08:50:10;;;;;;;71.53;24.43;;;;;;;-142.75;100.00;76702.19;5068169;28;20020;-67
2021/12/04 08:52:38;;;;;;;75.80;25.63;;;;;;;-142.75;100.00;76702.19;5051135;28;20417;-68
2021/12/04 08:55:04;;;;;;;88.07;26.50;;;;;;;-142.75;100.00;76708.09;5068455;28;20047;-68
2021/12/04 08:57:30;;;;;;;93.57;26.77;;;;;;;-142.75;100.00;76694.31;5050673;28;20029;-68
2021/12/04 08:59:55;;;;;;;91.90;28.55;;;;;;;-142.75;100.00;76688.41;5049961;28;20038;-68
2021/12/04 09:02:21;;;;;;;106.30;29.90;;;;;;;-142.75;100.00;76684.47;5068665;28;20024;-68
2021/12/04 09:04:47;;;;;;;117.82;30.55;;;;;;;-142.75;100.00;76696.28;5050766;28;20111;-68
2021/12/04 09:07:13;;;;;;;109.68;28.73;;;;;;;-142.75;100.00;76688.41;5068638;28;20025;-68
2021/12/04 09:09:39;;;;;;;105.30;29.37;;;;;;;-142.75;100.00;76704.16;5067781;28;20027;-67
2021/12/04 09:12:07;;;;;;;111.50;29.70;;;;;;;-142.75;100.00;76688.41;5068429;28;20028;-68
2021/12/04 09:14:35;;;;;;;101.20;29.37;;;;;;;-142.75;100.00;76688.41;5068390;28;20035;-68
2021/12/04 09:17:03;;;;;;;97.20;28.47;;;;;;;-142.75;100.00;76704.16;5068059;28;20103;-67
2021/12/04 09:19:28;;;;;;;104.60;28.73;;;;;;;-142.75;100.00;76704.16;5068390;28;20051;-67
2021/12/04 09:21:56;;;;;;;112.32;29.38;;;;;;;-142.75;100.00;76694.31;5049588;28;20028;-68
2021/12/04 09:24:26;;;;;;;117.23;31.70;;;;;;;-142.75;100.00;76700.22;5068427;28;20035;-68
2021/12/04 09:59:10;;;;;;;86.97;28.33;;;;;;;-142.75;100.00;76645.09;5068116;28;20119;-68
2021/12/04 10:13:22;;;;;;;93.25;28.15;;;;;;;-142.75;100.00;76641.16;5068482;28;20067;-67
2021/12/04 10:34:27;;;;;;;89.77;28.40;;;;;;;-142.75;100.00;76627.38;5068292;28;20097;-67
2021/12/04 10:36:52;;;;;;;98.60;30.77;;;;;;;-142.75;100.00;76625.41;5067583;28;20078;-67
2021/12/04 10:39:18;;;;;;;107.10;31.52;;;;;;;-142.75;100.00;76621.47;5067610;28;20032;-67
2021/12/04 10:41:46;;;;;;;103.95;29.08;;;;;;;-142.75;100.00;76605.72;5066765;28;20020;-67
2021/12/04 10:44:20;;;;;;;104.67;30.30;;;;;;;-142.75;100.00;76621.47;5067254;28;20120;-67
2021/12/04 10:47:03;;;;;;;105.53;33.67;;;;;;;-142.75;100.00;76619.50;5067751;28;20027;-67
2021/12/04 10:49:31;;;;;;;119.70;37.57;;;;;;;-142.75;100.00;76625.41;5071162;28;20020;-68
2021/12/04 10:52:03;;;;;;;126.50;38.77;;;;;;;-142.75;100.00;76613.59;5070340;28;20111;-67
2021/12/04 10:54:32;;;;;;;127.07;35.97;;;;;;;-142.75;100.00;76597.84;5070814;28;20108;-68
2021/12/04 10:57:49;;;;;;;143.83;36.00;;;;;;;-142.75;100.00;76593.91;5070879;28;20108;-68
2021/12/04 11:02:35;;;;;;;128.20;33.53;;;;;;;-142.75;100.00;76578.16;5070855;28;20033;-67
2021/12/04 11:05:25;;;;;;;131.20;34.50;;;;;;;-142.75;100.00;76562.41;5070839;28;20025;-67
2021/12/04 11:19:11;;;;;;;153.77;34.70;;;;;;;-142.75;100.00;76515.19;5071162;28;20051;-67
2021/12/04 11:42:54;;;;;;;115.07;33.43;;;;;;;-142.75;100.00;76491.56;5070297;28;20032;-67
2021/12/04 11:45:26;;;;;;;108.33;32.60;;;;;;;-142.75;100.00;76471.88;5070259;28;20107;-67
2021/12/04 11:47:56;;;;;;;99.70;30.57;;;;;;;-142.75;100.00;76475.81;5066545;28;20505;-66
2021/12/04 11:50:25;;;;;;;95.50;32.47;;;;;;;-142.75;100.00;76479.75;5061883;28;20017;-66
2021/12/04 11:52:58;;;;;;;96.00;32.87;;;;;;;-142.75;100.00;76471.88;5061413;28;20107;-69
2021/12/04 11:55:26;;;;;;;112.47;34.17;;;;;;;-142.75;100.00;76491.56;5059655;28;20031;-67
2021/12/04 11:57:52;;;;;;;102.23;34.10;;;;;;;-142.75;100.00;76473.84;5066683;28;20029;-68
2021/12/04 12:00:28;;;;;;;96.87;32.20;;;;;;;-142.75;100.00;76467.94;5066786;28;20037;-67
2021/12/04 12:03:12;;;;;;;100.32;32.00;;;;;;;-142.75;100.00;76471.88;5062561;28;20056;-67
2021/12/04 12:05:40;;;;;;;98.60;32.03;;;;;;;-142.75;100.00;76456.13;5044181;28;20487;-68
2021/12/04 12:08:06;;;;;;;103.23;30.37;;;;;;;-142.75;100.00;76469.91;5060801;28;20434;-67
2021/12/04 12:10:31;;;;;;;102.97;32.40;;;;;;;-142.75;100.00;76475.81;5059462;28;20028;-68
2021/12/04 12:13:04;;;;;;;110.63;32.15;;;;;;;-142.75;100.00;76471.88;5064638;28;20287;-67
2021/12/04 12:15:33;;;;;;;101.67;31.37;;;;;;;-142.75;100.00;76465.97;5066871;28;20032;-67
2021/12/04 12:18:19;;;;;;;104.77;32.27;;;;;;;-142.75;100.00;76450.22;5048424;28;20028;-67
2021/12/04 12:23:17;;;;;;;92.90;29.10;;;;;;;-142.75;100.00;76438.41;5063921;28;20119;-67
2021/12/04 12:37:22;;;;;;;64.80;21.90;;;;;;;-142.75;100.00;76357.69;5069096;28;20032;-68
2021/12/04 12:39:58;;;;;;;59.15;21.25;;;;;;;-142.75;100.00;76395.09;5068426;28;20032;-68
2021/12/04 12:42:30;;;;;;;47.05;18.42;;;;;;;-142.75;100.00;76397.06;5068848;28;20036;-67
2021/12/04 12:45:29;;;;;;;33.20;14.17;;;;;;;-142.75;100.00;76408.88;5068698;28;20107;-68
2021/12/04 12:48:01;;;;;;;38.13;15.23;;;;;;;-142.75;100.00;76389.19;5068590;28;20412;-68
2021/12/04 12:50:38;;;;;;;37.23;15.67;;;;;;;-142.75;100.00;76387.22;5067884;28;20031;-67
2021/12/04 12:53:26;;;;;;;31.92;13.38;;;;;;;-142.75;100.00;76373.44;5068621;28;20108;-68
2021/12/04 12:56:03;;;;;;;29.67;13.20;;;;;;;-142.75;100.00;76365.56;5050832;28;20393;-68
2021/12/04 12:58:38;;;;;;;31.77;13.53;;;;;;;-142.75;100.00;76375.41;5068459;28;20039;-68
2021/12/04 13:12:50;;;;;;;24.60;12.57;;;;;;;-142.75;100.00;76365.56;5068673;28;20100;-68
2021/12/04 13:15:32;;;;;;;26.10;12.27;;;;;;;-142.75;100.00;76353.78;5068245;28;20029;-68
2021/12/04 13:18:16;;;;;;;20.93;9.90;;;;;;;-142.75;100.00;76357.69;5050589;28;20117;-67
2021/12/04 13:20:43;;;;;;;23.33;10.07;;;;;;;-142.75;100.00;76345.91;5067763;28;20529;-68
2021/12/04 13:23:14;;;;;;;22.00;8.27;;;;;;;-142.75;100.00;76355.72;5068225;28;20125;-67
2021/12/04 13:25:59;;;;;;;20.53;7.40;;;;;;;-142.75;100.00;76355.72;5066485;28;20027;-67
2021/12/04 13:28:30;;;;;;;16.63;6.37;;;;;;;-142.75;100.00;76359.66;5068107;28;20032;-67
2021/12/04 13:30:56;;;;;;;13.27;5.20;;;;;;;-142.75;100.00;76347.84;5067391;28;20391;-68
2021/12/04 13:33:21;;;;;;;10.02;3.85;;;;;;;-142.75;100.00;76355.72;5050503;28;20021;-68
2021/12/04 13:35:47;;;;;;;9.70;3.42;;;;;;;-142.75;100.00;76353.78;5068058;28;20025;-67
2021/12/04 13:40:48;;;;;;;6.83;1.80;;;;;;;-142.75;100.00;76353.78;5065490;28;20118;-66
2021/12/04 13:43:15;;;;;;;7.07;1.70;;;;;;;-142.75;100.00;76343.94;5069038;28;20024;-66
2021/12/04 13:45:42;;;;;;;3.97;0.90;;;;;;;-142.75;100.00;76349.81;5068989;28;20062;-64
2021/12/04 13:48:08;;;;;;;3.63;1.40;;;;;;;-142.75;100.00;76363.59;5050975;28;20054;-65
2021/12/04 13:53:16;;;;;;;4.30;0.80;;;;;;;-142.75;100.00;76363.59;5069232;28;20040;-66
2021/12/04 13:55:47;;;;;;;4.57;0.80;;;;;;;-142.75;100.00;76369.50;5069083;28;20028;-65
2021/12/04 13:58:13;;;;;;;3.30;0.73;;;;;;;-142.75;100.00;76369.50;5068948;28;20039;-65
2021/12/04 14:00:38;;;;;;;3.60;1.08;;;;;;;-142.75;100.00;76373.44;5066290;28;20024;-65
2021/12/04 14:03:04;;;;;;;4.30;0.73;;;;;;;-142.75;100.00;76349.81;5068970;28;20035;-66
2021/12/04 14:05:29;;;;;;;3.30;0.77;;;;;;;-142.75;100.00;76373.44;5050583;28;20513;-65
2021/12/04 14:08:01;;;;;;;6.15;0.73;;;;;;;-142.75;100.00;76361.63;5067140;28;20020;-66
2021/12/04 14:10:32;;;;;;;3.40;0.87;;;;;;;-142.75;100.00;76361.63;5067850;28;20521;-66
2021/12/04 14:13:01;;;;;;;5.63;1.03;;;;;;;-142.75;100.00;76353.78;5068704;28;20089;-66
2021/12/04 14:15:27;;;;;;;5.27;0.77;;;;;;;-142.75;100.00;76345.91;5050748;28;20052;-66
2021/12/04 14:18:00;;;;;;;3.08;0.90;;;;;;;-142.75;100.00;76355.72;5050758;28;20048;-66